createdAt,value
2022-08-30T00:00:20.586Z,100798.91
2022-08-30T00:01:33.779Z,100800.03
2022-08-30T00:02:39.327Z,100799.16
2022-08-30T00:03:47.126Z,100793.88
2022-08-30T00:04:49.510Z,100801.41
2022-08-30T00:05:51.797Z,100804.19
2022-08-30T00:06:58.551Z,100795.28
2022-08-30T00:08:00.964Z,100799.22
2022-08-30T00:09:03.484Z,100801.13
2022-08-30T00:10:06.391Z,100795.03
2022-08-30T00:11:12.605Z,100791.69
2022-08-30T00:12:14.818Z,100792.53
2022-08-30T00:13:18.234Z,100793.09
2022-08-30T00:14:20.722Z,100798.66
2022-08-30T00:15:24.289Z,100800.88
2022-08-30T00:16:26.884Z,100797.28
2022-08-30T00:17:29.116Z,100797.56
2022-08-30T00:18:31.805Z,100795.06
2022-08-30T00:19:34.052Z,100797.00
2022-08-30T00:20:38.010Z,100794.50
2022-08-30T00:21:43.701Z,100797.84
2022-08-30T00:22:46.451Z,100798.97
2022-08-30T00:23:48.745Z,100795.34
2022-08-30T00:24:51.043Z,100799.25
2022-08-30T00:25:53.279Z,100797.56
2022-08-30T00:26:55.512Z,100804.25
2022-08-30T00:27:58.095Z,100806.50
2022-08-30T00:29:00.317Z,100798.41
2022-08-30T00:30:02.821Z,100803.97
2022-08-30T00:31:08.915Z,100801.47
2022-08-30T00:32:12.519Z,100801.47
2022-08-30T00:33:15.369Z,100794.50
2022-08-30T00:34:18.040Z,100805.66
2022-08-30T00:35:20.718Z,100809.53
2022-08-30T00:36:22.945Z,100805.94
2022-08-30T00:37:25.376Z,100809.81
2022-08-30T00:38:27.638Z,100813.72
2022-08-30T00:39:30.386Z,100807.31
2022-08-30T00:40:33.538Z,100811.22
2022-08-30T00:41:35.838Z,100803.97
2022-08-30T00:42:39.592Z,100809.53
2022-08-30T00:43:41.873Z,100816.25
2022-08-30T00:44:44.927Z,100820.94
2022-08-30T00:45:47.416Z,100817.34
2022-08-30T00:46:52.469Z,100810.09
2022-08-30T00:47:54.915Z,100818.16
2022-08-30T00:49:07.265Z,100811.22
2022-08-30T00:50:10.417Z,100812.06
2022-08-30T00:51:15.582Z,100814.00
2022-08-30T00:52:18.987Z,100809.56
2022-08-30T00:53:25.858Z,100809.56
2022-08-30T00:54:29.556Z,100805.94
2022-08-30T00:55:33.330Z,100810.69
2022-08-30T00:56:36.290Z,100806.22
2022-08-30T00:57:40.813Z,100806.22
2022-08-30T00:58:47.677Z,100808.19
2022-08-30T00:59:50.500Z,100817.34
2022-08-30T01:00:55.385Z,100800.09
2022-08-30T01:01:58.140Z,100805.66
2022-08-30T01:03:00.490Z,100804.00
2022-08-30T01:04:04.151Z,100807.91
2022-08-30T01:05:10.896Z,100808.19
2022-08-30T01:06:18.567Z,100802.63
2022-08-30T01:07:20.833Z,100799.00
2022-08-30T01:08:26.283Z,100802.06
2022-08-30T01:09:28.539Z,100799.28
2022-08-30T01:10:30.874Z,100800.38
2022-08-30T01:11:37.533Z,100805.41
2022-08-30T01:12:40.446Z,100800.94
2022-08-30T01:13:43.900Z,100805.94
2022-08-30T01:14:46.922Z,100804.25
2022-08-30T01:15:53.834Z,100800.66
2022-08-30T01:16:58.079Z,100809.28
2022-08-30T01:18:11.614Z,100804.00
2022-08-30T01:19:49.505Z,100805.38
2022-08-30T01:21:42.863Z,100806.75
2022-08-30T01:22:56.830Z,100802.31
2022-08-30T01:24:00.784Z,100803.41
2022-08-30T01:25:08.066Z,100804.50
2022-08-30T01:26:14.172Z,100797.56
2022-08-30T01:27:21.188Z,100797.84
2022-08-30T01:28:26.357Z,100802.59
2022-08-30T01:29:29.451Z,100800.91
2022-08-30T01:30:39.083Z,100800.63
2022-08-30T01:31:41.395Z,100798.94
2022-08-30T01:32:47.284Z,100806.47
2022-08-30T01:33:52.353Z,100802.00
2022-08-30T01:34:56.283Z,100797.56
2022-08-30T01:36:02.056Z,100795.91
2022-08-30T01:37:04.398Z,100798.69
2022-08-30T01:38:06.699Z,100798.69
2022-08-30T01:39:10.102Z,100801.72
2022-08-30T01:40:15.437Z,100799.22
2022-08-30T01:41:22.008Z,100807.56
2022-08-30T01:42:25.169Z,100810.34
2022-08-30T01:43:30.197Z,100818.69
2022-08-30T01:44:32.387Z,100816.19
2022-08-30T01:45:34.781Z,100811.47
2022-08-30T01:46:45.731Z,100809.78
2022-08-30T01:47:47.949Z,100813.69
2022-08-30T01:48:53.984Z,100814.50
2022-08-30T01:49:56.600Z,100814.50
2022-08-30T01:50:59.154Z,100810.91
2022-08-30T01:52:01.587Z,100810.91
2022-08-30T01:53:05.683Z,100809.22
2022-08-30T01:54:09.833Z,100816.47
2022-08-30T01:55:15.150Z,100807.56
2022-08-30T01:56:21.096Z,100813.09
2022-08-30T01:57:24.025Z,100812.28
2022-08-30T01:58:26.305Z,100809.78
2022-08-30T01:59:31.332Z,100811.47
2022-08-30T02:00:33.799Z,100812.56
2022-08-30T02:01:37.307Z,100805.34
2022-08-30T02:02:40.082Z,100808.41
2022-08-30T02:03:44.002Z,100806.44
2022-08-30T02:04:46.354Z,100808.41
2022-08-30T02:05:48.609Z,100806.72
2022-08-30T02:06:51.355Z,100805.91
2022-08-30T02:07:53.977Z,100800.59
2022-08-30T02:08:56.181Z,100805.31
2022-08-30T02:09:58.412Z,100798.94
2022-08-30T02:11:01.025Z,100805.59
2022-08-30T02:12:07.498Z,100804.50
2022-08-30T02:13:09.726Z,100804.75
2022-08-30T02:14:11.927Z,100801.44
2022-08-30T02:15:14.205Z,100800.56
2022-08-30T02:16:24.303Z,100797.81
2022-08-30T02:17:27.104Z,100806.41
2022-08-30T02:18:29.385Z,100801.72
2022-08-30T02:19:32.192Z,100801.97
2022-08-30T02:20:34.380Z,100800.31
2022-08-30T02:21:37.147Z,100799.47
2022-08-30T02:22:39.569Z,100804.19
2022-08-30T02:23:50.855Z,100800.03
2022-08-30T02:24:53.089Z,100804.75
2022-08-30T02:25:55.403Z,100801.13
2022-08-30T02:27:00.729Z,100801.41
2022-08-30T02:28:03.863Z,100804.19
2022-08-30T02:29:09.750Z,100808.06
2022-08-30T02:30:12.820Z,100794.44
2022-08-30T02:31:15.705Z,100801.97
2022-08-30T02:32:21.617Z,100803.06
2022-08-30T02:33:23.995Z,100799.72
2022-08-30T02:34:26.322Z,100799.72
2022-08-30T02:35:31.867Z,100798.91
2022-08-30T02:36:34.070Z,100808.59
2022-08-30T02:37:36.805Z,100804.16
2022-08-30T02:38:39.172Z,100808.88
2022-08-30T02:39:42.163Z,100806.34
2022-08-30T02:40:53.475Z,100811.09
2022-08-30T02:41:58.335Z,100803.03
2022-08-30T02:43:01.166Z,100806.91
2022-08-30T02:44:03.388Z,100810.53
2022-08-30T02:45:08.981Z,100808.88
2022-08-30T02:46:12.357Z,100808.03
2022-08-30T02:47:16.890Z,100811.91
2022-08-30T02:48:19.397Z,100811.34
2022-08-30T02:49:36.981Z,100804.97
2022-08-30T02:50:49.785Z,100810.78
2022-08-30T02:51:54.272Z,100802.72
2022-08-30T02:52:58.754Z,100811.06
2022-08-30T02:54:00.941Z,100805.50
2022-08-30T02:55:04.744Z,100804.97
2022-08-30T02:56:07.400Z,100806.06
2022-08-30T02:57:20.086Z,100805.19
2022-08-30T02:58:22.703Z,100801.59
2022-08-30T02:59:26.588Z,100801.03
2022-08-30T03:00:32.024Z,100806.59
2022-08-30T03:01:36.623Z,100809.34
2022-08-30T03:02:40.517Z,100817.16
2022-08-30T03:03:47.196Z,100807.97
2022-08-30T03:04:50.257Z,100807.97
2022-08-30T03:05:52.510Z,100812.69
2022-08-30T03:06:55.165Z,100812.97
2022-08-30T03:07:57.521Z,100814.06
2022-08-30T03:09:00.143Z,100814.88
2022-08-30T03:10:02.474Z,100809.63
2022-08-30T03:11:04.770Z,100813.50
2022-08-30T03:12:07.997Z,100809.06
2022-08-30T03:13:10.369Z,100809.91
2022-08-30T03:14:15.643Z,100808.22
2022-08-30T03:15:22.671Z,100805.72
2022-08-30T03:16:24.988Z,100804.03
2022-08-30T03:17:27.411Z,100803.22
2022-08-30T03:18:29.711Z,100811.81
2022-08-30T03:19:32.481Z,100801.81
2022-08-30T03:20:40.810Z,100812.94
2022-08-30T03:21:46.188Z,100801.00
2022-08-30T03:22:49.118Z,100797.38
2022-08-30T03:23:54.053Z,100815.97
2022-08-30T03:25:02.177Z,100811.25
2022-08-30T03:26:06.642Z,100811.53
2022-08-30T03:27:09.077Z,100811.81
2022-08-30T03:28:11.369Z,100809.84
2022-08-30T03:29:13.661Z,100807.34
2022-08-30T03:30:17.197Z,100812.06
2022-08-30T03:31:19.601Z,100800.38
2022-08-30T03:32:22.305Z,100802.31
2022-08-30T03:33:25.148Z,100805.34
2022-08-30T03:34:28.069Z,100801.16
2022-08-30T03:35:33.149Z,100801.44
2022-08-30T03:36:35.547Z,100798.66
2022-08-30T03:37:37.824Z,100808.94
2022-08-30T03:38:40.324Z,100794.50
2022-08-30T03:39:45.115Z,100795.59
2022-08-30T03:40:48.339Z,100801.13
2022-08-30T03:41:51.907Z,100798.09
2022-08-30T03:42:54.276Z,100793.91
2022-08-30T03:43:58.866Z,100799.19
2022-08-30T03:45:04.861Z,100799.47
2022-08-30T03:46:07.931Z,100795.84
2022-08-30T03:47:10.247Z,100794.44
2022-08-30T03:48:15.330Z,100797.22
2022-08-30T03:49:18.428Z,100803.88
2022-08-30T03:50:20.643Z,100796.66
2022-08-30T03:51:24.017Z,100790.25
2022-08-30T03:52:29.506Z,100796.94
2022-08-30T03:53:31.719Z,100795.25
2022-08-30T03:54:33.961Z,100791.63
2022-08-30T03:55:36.193Z,100802.19
2022-08-30T03:56:38.466Z,100793.84
2022-08-30T03:57:43.539Z,100799.69
2022-08-30T03:58:46.020Z,100797.16
2022-08-30T03:59:54.170Z,100791.59
2022-08-30T04:00:59.478Z,100801.06
2022-08-30T04:02:01.791Z,100801.88
2022-08-30T04:03:04.049Z,100795.75
2022-08-30T04:04:06.295Z,100802.16
2022-08-30T04:05:10.751Z,100806.84
2022-08-30T04:06:25.310Z,100805.19
2022-08-30T04:07:27.508Z,100804.34
2022-08-30T04:08:29.750Z,100803.53
2022-08-30T04:09:31.953Z,100806.56
2022-08-30T04:10:37.787Z,100807.66
2022-08-30T04:11:43.039Z,100807.66
2022-08-30T04:12:49.563Z,100807.94
2022-08-30T04:13:52.368Z,100811.53
2022-08-30T04:14:54.813Z,100809.03
2022-08-30T04:16:00.384Z,100809.88
2022-08-30T04:17:02.640Z,100806.28
2022-08-30T04:18:07.410Z,100808.47
2022-08-30T04:19:09.646Z,100817.63
2022-08-30T04:20:11.940Z,100817.06
2022-08-30T04:21:14.359Z,100814.00
2022-08-30T04:22:16.754Z,100815.13
2022-08-30T04:23:19.240Z,100816.22
2022-08-30T04:24:21.417Z,100813.72
2022-08-30T04:25:23.854Z,100822.88
2022-08-30T04:26:29.343Z,100819.53
2022-08-30T04:27:32.498Z,100823.16
2022-08-30T04:28:35.408Z,100823.16
2022-08-30T04:29:40.212Z,100818.69
2022-08-30T04:30:44.316Z,100827.84
2022-08-30T04:31:49.400Z,100821.47
2022-08-30T04:32:54.484Z,100816.75
2022-08-30T04:34:00.344Z,100829.78
2022-08-30T04:35:02.681Z,100827.03
2022-08-30T04:36:06.761Z,100821.47
2022-08-30T04:37:09.994Z,100826.19
2022-08-30T04:38:17.432Z,100823.66
2022-08-30T04:39:29.375Z,100818.97
2022-08-30T04:40:31.699Z,100828.13
2022-08-30T04:41:36.912Z,100819.78
2022-08-30T04:42:39.157Z,100824.53
2022-08-30T04:43:41.366Z,100830.06
2022-08-30T04:44:43.627Z,100829.22
2022-08-30T04:45:46.716Z,100830.91
2022-08-30T04:46:49.355Z,100839.22
2022-08-30T04:47:51.812Z,100830.91
2022-08-30T04:48:54.476Z,100832.84
2022-08-30T04:50:04.362Z,100842.84
2022-08-30T04:51:17.412Z,100845.84
2022-08-30T04:52:19.786Z,100835.63
2022-08-30T04:53:24.376Z,100846.72
2022-08-30T04:54:30.111Z,100838.94
2022-08-30T04:55:32.312Z,100846.16
2022-08-30T04:56:35.206Z,100844.25
2022-08-30T04:57:44.389Z,100841.47
2022-08-30T04:58:48.808Z,100836.75
2022-08-30T04:59:51.358Z,100846.47
2022-08-30T05:00:56.259Z,100837.06
2022-08-30T05:01:58.505Z,100841.50
2022-08-30T05:03:00.884Z,100842.06
2022-08-30T05:04:04.305Z,100840.69
2022-08-30T05:05:25.902Z,100847.66
2022-08-30T05:06:31.231Z,100849.06
2022-08-30T05:07:34.386Z,100849.63
2022-08-30T05:08:36.605Z,100849.09
2022-08-30T05:09:38.781Z,100846.63
2022-08-30T05:10:45.077Z,100852.19
2022-08-30T05:11:47.599Z,100857.78
2022-08-30T05:12:50.073Z,100858.91
2022-08-30T05:13:52.367Z,100860.03
2022-08-30T05:14:54.647Z,100863.13
2022-08-30T05:15:56.930Z,100861.22
2022-08-30T05:16:59.180Z,100859.56
2022-08-30T05:18:01.698Z,100854.03
2022-08-30T05:19:04.398Z,100858.81
2022-08-30T05:20:08.600Z,100856.88
2022-08-30T05:21:29.214Z,100861.34
2022-08-30T05:22:31.379Z,100851.94
2022-08-30T05:23:36.767Z,100850.81
2022-08-30T05:24:38.975Z,100864.72
2022-08-30T05:25:42.926Z,100863.66
2022-08-30T05:26:45.169Z,100872.00
2022-08-30T05:27:47.547Z,100868.13
2022-08-30T05:28:50.202Z,100866.19
2022-08-30T05:29:52.409Z,100869.84
2022-08-30T05:30:54.645Z,100867.91
2022-08-30T05:31:57.429Z,100873.75
2022-08-30T05:33:03.129Z,100867.94
2022-08-30T05:34:05.430Z,100874.34
2022-08-30T05:35:10.066Z,100873.25
2022-08-30T05:36:13.811Z,100876.59
2022-08-30T05:37:15.992Z,100874.38
2022-08-30T05:38:18.470Z,100871.31
2022-08-30T05:39:21.124Z,100869.09
2022-08-30T05:40:24.396Z,100874.91
2022-08-30T05:41:27.432Z,100869.91
2022-08-30T05:42:29.654Z,100871.00
2022-08-30T05:43:32.201Z,100869.31
2022-08-30T05:44:34.380Z,100872.38
2022-08-30T05:45:38.629Z,100876.25
2022-08-30T05:46:45.755Z,100870.09
2022-08-30T05:47:48.197Z,100865.38
2022-08-30T05:48:53.445Z,100872.56
2022-08-30T05:49:56.186Z,100880.59
2022-08-30T05:51:04.352Z,100875.84
2022-08-30T05:52:16.142Z,100874.94
2022-08-30T05:53:18.325Z,100879.06
2022-08-30T05:54:20.592Z,100880.97
2022-08-30T05:55:22.768Z,100868.59
2022-08-30T05:56:31.417Z,100877.50
2022-08-30T05:57:42.382Z,100871.25
2022-08-30T05:58:47.207Z,100872.00
2022-08-30T05:59:52.043Z,100883.63
2022-08-30T06:00:54.239Z,100881.56
2022-08-30T06:01:58.214Z,100877.28
2022-08-30T06:03:02.556Z,100879.66
2022-08-30T06:04:06.470Z,100883.75
2022-08-30T06:05:14.756Z,100887.00
2022-08-30T06:06:17.042Z,100879.84
2022-08-30T06:07:22.920Z,100883.88
2022-08-30T06:08:25.823Z,100890.72
2022-08-30T06:09:28.061Z,100885.56
2022-08-30T06:10:30.271Z,100880.03
2022-08-30T06:11:33.888Z,100885.22
2022-08-30T06:12:39.311Z,100881.38
2022-08-30T06:13:41.849Z,100880.91
2022-08-30T06:14:44.335Z,100876.53
2022-08-30T06:15:47.242Z,100874.63
2022-08-30T06:16:49.680Z,100880.56
2022-08-30T06:17:52.074Z,100875.34
2022-08-30T06:18:57.104Z,100875.06
2022-08-30T06:19:59.303Z,100872.91
2022-08-30T06:21:01.593Z,100867.00
2022-08-30T06:22:03.834Z,100870.97
2022-08-30T06:23:06.048Z,100866.50
2022-08-30T06:24:13.175Z,100874.09
2022-08-30T06:25:16.486Z,100865.69
2022-08-30T06:26:23.131Z,100864.81
2022-08-30T06:27:25.431Z,100866.75
2022-08-30T06:28:27.675Z,100870.69
2022-08-30T06:29:29.925Z,100868.69
2022-08-30T06:30:32.826Z,100868.13
2022-08-30T06:31:35.205Z,100863.25
2022-08-30T06:32:38.993Z,100862.72
2022-08-30T06:33:41.249Z,100858.66
2022-08-30T06:34:43.429Z,100870.13
2022-08-30T06:35:58.363Z,100858.34
2022-08-30T06:37:04.436Z,100863.50
2022-08-30T06:38:06.656Z,100862.91
2022-08-30T06:39:09.611Z,100865.94
2022-08-30T06:40:13.543Z,100865.31
2022-08-30T06:41:22.035Z,100865.81
2022-08-30T06:42:30.641Z,100863.91
2022-08-30T06:43:32.883Z,100866.38
2022-08-30T06:44:35.166Z,100860.44
2022-08-30T06:45:37.396Z,100861.78
2022-08-30T06:46:39.750Z,100860.63
2022-08-30T06:47:42.430Z,100862.28
2022-08-30T06:48:48.411Z,100859.47
2022-08-30T06:49:50.966Z,100867.63
2022-08-30T06:50:54.953Z,100857.16
2022-08-30T06:51:57.136Z,100859.63
2022-08-30T06:53:05.883Z,100855.13
2022-08-30T06:54:10.899Z,100860.44
2022-08-30T06:55:16.393Z,100862.03
2022-08-30T06:56:19.560Z,100864.00
2022-08-30T06:57:21.792Z,100858.38
2022-08-30T06:58:24.137Z,100869.28
2022-08-30T06:59:27.274Z,100863.09
2022-08-30T07:00:30.328Z,100864.56
2022-08-30T07:01:33.029Z,100867.03
2022-08-30T07:02:37.990Z,100866.13
2022-08-30T07:03:40.504Z,100870.91
2022-08-30T07:04:42.757Z,100871.19
2022-08-30T07:05:47.409Z,100870.69
2022-08-30T07:06:49.690Z,100866.50
2022-08-30T07:07:54.957Z,100868.44
2022-08-30T07:08:57.618Z,100862.22
2022-08-30T07:10:03.795Z,100863.84
2022-08-30T07:11:07.742Z,100869.75
2022-08-30T07:12:18.886Z,100865.69
2022-08-30T07:13:24.089Z,100859.84
2022-08-30T07:14:26.305Z,100857.78
2022-08-30T07:15:30.841Z,100860.53
2022-08-30T07:16:40.408Z,100855.63
2022-08-30T07:18:01.045Z,100860.34
2022-08-30T07:19:05.529Z,100860.88
2022-08-30T07:20:10.839Z,100870.06
2022-08-30T07:21:19.081Z,100867.16
2022-08-30T07:22:24.550Z,100865.91
2022-08-30T07:23:27.085Z,100865.78
2022-08-30T07:24:31.012Z,100868.53
2022-08-30T07:25:33.398Z,100867.25
2022-08-30T07:26:42.769Z,100878.09
2022-08-30T07:27:46.122Z,100867.47
2022-08-30T07:28:48.761Z,100873.03
2022-08-30T07:29:58.977Z,100864.06
2022-08-30T07:31:01.281Z,100874.44
2022-08-30T07:32:03.859Z,100872.69
2022-08-30T07:33:06.545Z,100878.66
2022-08-30T07:34:09.731Z,100874.84
2022-08-30T07:35:11.928Z,100875.53
2022-08-30T07:36:17.274Z,100889.13
2022-08-30T07:37:19.476Z,100879.66
2022-08-30T07:38:21.647Z,100885.19
2022-08-30T07:39:24.045Z,100887.03
2022-08-30T07:40:27.386Z,100886.06
2022-08-30T07:41:36.459Z,100891.56
2022-08-30T07:42:38.895Z,100889.75
2022-08-30T07:43:47.089Z,100894.09
2022-08-30T07:44:51.086Z,100894.75
2022-08-30T07:45:56.072Z,100894.22
2022-08-30T07:46:59.135Z,100886.72
2022-08-30T07:48:01.732Z,100887.75
2022-08-30T07:49:04.608Z,100883.06
2022-08-30T07:50:07.703Z,100883.72
2022-08-30T07:51:18.961Z,100881.91
2022-08-30T07:52:21.190Z,100884.09
2022-08-30T07:53:23.858Z,100872.94
2022-08-30T07:54:26.029Z,100875.13
2022-08-30T07:55:28.183Z,100875.31
2022-08-30T07:56:33.365Z,100876.28
2022-08-30T07:57:35.634Z,100885.44
2022-08-30T07:58:38.255Z,100883.50
2022-08-30T07:59:42.694Z,100878.81
2022-08-30T08:00:44.991Z,100883.47
2022-08-30T08:01:47.212Z,100879.53
2022-08-30T08:02:49.513Z,100884.53
2022-08-30T08:03:58.908Z,100888.72
2022-08-30T08:05:02.111Z,100878.25
2022-08-30T08:06:07.036Z,100881.63
2022-08-30T08:07:09.252Z,100886.53
2022-08-30T08:08:13.265Z,100882.59
2022-08-30T08:09:15.549Z,100882.66
2022-08-30T08:10:17.778Z,100875.03
2022-08-30T08:11:23.655Z,100873.09
2022-08-30T08:12:26.238Z,100873.56
2022-08-30T08:13:32.805Z,100871.59
2022-08-30T08:14:39.574Z,100869.66
2022-08-30T08:15:41.811Z,100864.44
2022-08-30T08:16:48.144Z,100869.78
2022-08-30T08:17:50.318Z,100865.81
2022-08-30T08:18:53.499Z,100873.59
2022-08-30T08:19:55.764Z,100872.00
2022-08-30T08:20:59.071Z,100881.44
2022-08-30T08:22:20.465Z,100867.28
2022-08-30T08:23:23.529Z,100873.50
2022-08-30T08:24:33.755Z,100881.34
2022-08-30T08:25:40.761Z,100874.06
2022-08-30T08:26:45.317Z,100889.59
2022-08-30T08:27:51.383Z,100879.09
2022-08-30T08:28:53.689Z,100887.69
2022-08-30T08:30:03.359Z,100875.53
2022-08-30T08:31:15.324Z,100887.41
2022-08-30T08:32:18.106Z,100878.13
2022-08-30T08:33:20.517Z,100877.38
2022-08-30T08:34:23.802Z,100877.03
2022-08-30T08:35:26.066Z,100877.91
2022-08-30T08:36:30.413Z,100880.84
2022-08-30T08:37:36.115Z,100880.06
2022-08-30T08:38:38.305Z,100874.81
2022-08-30T08:39:40.506Z,100875.69
2022-08-30T08:41:02.768Z,100884.31
2022-08-30T08:42:24.565Z,100879.47
2022-08-30T08:43:27.242Z,100870.63
2022-08-30T08:46:06.366Z,100872.03
2022-08-30T08:47:16.208Z,100879.41
2022-08-30T08:48:24.714Z,100875.81
2022-08-30T08:49:33.976Z,100875.41
2022-08-30T08:50:36.995Z,100865.28
2022-08-30T08:52:02.835Z,100871.38
2022-08-30T08:53:46.299Z,100873.84
2022-08-30T08:54:56.432Z,100874.69
2022-08-30T08:56:05.374Z,100872.66
2022-08-30T08:57:13.664Z,100874.69
2022-08-30T08:58:30.571Z,100880.38
2022-08-30T08:59:32.785Z,100866.94
2022-08-30T09:00:35.023Z,100874.28
2022-08-30T09:01:39.201Z,100871.06
2022-08-30T09:02:48.242Z,100869.84
2022-08-30T09:03:52.617Z,100872.31
2022-08-30T09:04:57.680Z,100865.41
2022-08-30T09:06:04.177Z,100874.81
2022-08-30T09:07:21.943Z,100864.69
2022-08-30T09:08:27.521Z,100864.28
2022-08-30T09:09:41.874Z,100868.41
2022-08-30T09:11:01.882Z,100857.88
2022-08-30T09:12:06.331Z,100863.22
2022-08-30T09:13:13.719Z,100852.69
2022-08-30T09:14:19.608Z,100854.75
2022-08-30T09:15:29.806Z,100864.56
2022-08-30T09:16:57.807Z,100861.38
2022-08-30T09:18:02.438Z,100867.53
2022-08-30T09:19:05.257Z,100869.59
2022-08-30T09:20:09.988Z,100865.94
2022-08-30T09:21:14.330Z,100866.00
2022-08-30T09:22:32.541Z,100859.91
2022-08-30T09:23:34.722Z,100858.75
2022-08-30T09:24:42.877Z,100857.94
2022-08-30T09:26:04.665Z,100858.84
2022-08-30T09:27:24.057Z,100857.59
2022-08-30T09:28:33.108Z,100859.25
2022-08-30T09:29:35.275Z,100862.50
2022-08-30T09:30:38.249Z,100865.75
2022-08-30T09:31:52.888Z,100858.78
2022-08-30T09:33:07.859Z,100867.28
2022-08-30T09:34:19.194Z,100857.44
2022-08-30T09:35:25.588Z,100856.56
2022-08-30T09:36:39.705Z,100857.31
2022-08-30T09:37:53.096Z,100854.75
2022-08-30T09:39:05.724Z,100849.78
2022-08-30T09:40:15.437Z,100860.63
2022-08-30T09:41:52.359Z,100860.03
2022-08-30T09:43:20.641Z,100860.31
2022-08-30T09:44:28.170Z,100854.94
2022-08-30T09:45:37.292Z,100852.41
2022-08-30T09:47:00.303Z,100858.03
2022-08-30T09:48:23.935Z,100849.84
2022-08-30T09:49:45.957Z,100852.59
2022-08-30T09:50:56.011Z,100849.31
2022-08-30T09:52:12.160Z,100851.31
2022-08-30T09:53:23.378Z,100851.72
2022-08-30T09:54:46.077Z,100844.75
2022-08-30T09:55:59.909Z,100844.69
2022-08-30T09:57:13.235Z,100843.00
2022-08-30T09:58:40.922Z,100832.38
2022-08-30T10:00:04.971Z,100831.06
2022-08-30T10:01:11.981Z,100828.97
2022-08-30T10:02:39.214Z,100839.94
2022-08-30T10:03:41.632Z,100832.16
2022-08-30T10:04:52.847Z,100839.41
2022-08-30T10:06:29.004Z,100847.84
2022-08-30T10:07:53.726Z,100841.22
2022-08-30T10:09:03.585Z,100833.34
2022-08-30T10:10:14.566Z,100845.09
2022-08-30T10:11:27.535Z,100839.78
2022-08-30T10:12:43.884Z,100833.66
2022-08-30T10:14:19.987Z,100838.09
2022-08-30T10:15:30.923Z,100840.47
2022-08-30T10:16:59.991Z,100840.88
2022-08-30T10:18:40.683Z,100839.22
2022-08-30T10:20:04.172Z,100835.56
2022-08-30T10:21:25.604Z,100834.38
2022-08-30T10:22:36.975Z,100842.91
2022-08-30T10:23:49.332Z,100839.28
2022-08-30T10:25:05.270Z,100834.41
2022-08-30T10:26:20.009Z,100835.66
2022-08-30T10:27:29.312Z,100839.78
2022-08-30T10:28:37.795Z,100832.50
2022-08-30T10:29:48.949Z,100837.47
2022-08-30T10:31:03.258Z,100834.63
2022-08-30T10:32:29.816Z,100834.22
2022-08-30T10:33:42.703Z,100836.69
2022-08-30T10:35:19.237Z,100837.06
2022-08-30T10:36:33.805Z,100828.09
2022-08-30T10:37:45.910Z,100831.78
2022-08-30T10:38:56.595Z,100828.84
2022-08-30T10:40:45.531Z,100831.63
2022-08-30T10:42:17.584Z,100827.53
2022-08-30T10:43:31.543Z,100833.97
2022-08-30T10:44:41.212Z,100823.34
2022-08-30T10:45:47.164Z,100830.19
2022-08-30T10:48:47.481Z,100820.63
2022-08-30T10:49:54.936Z,100822.13
2022-08-30T10:51:06.922Z,100822.88
2022-08-30T10:52:34.389Z,100819.53
2022-08-30T10:53:44.693Z,100814.59
2022-08-30T10:54:59.149Z,100817.72
2022-08-30T10:56:08.750Z,100813.25
2022-08-30T10:57:11.139Z,100813.97
2022-08-30T10:58:15.941Z,100813.97
2022-08-30T10:59:19.402Z,100814.38
2022-08-30T11:00:29.275Z,100820.84
2022-08-30T11:01:47.046Z,100815.47
2022-08-30T11:03:13.943Z,100820.34
2022-08-30T11:04:37.668Z,100810.19
2022-08-30T11:05:55.188Z,100807.34
2022-08-30T11:07:21.485Z,100815.84
2022-08-30T11:09:07.710Z,100811.00
2022-08-30T11:10:28.669Z,100810.19
2022-08-30T11:11:58.848Z,100818.69
2022-08-30T11:13:17.916Z,100814.22
2022-08-30T11:14:25.386Z,100810.56
2022-08-30T11:15:31.696Z,100809.38
2022-08-30T11:16:43.350Z,100815.84
2022-08-30T11:18:09.581Z,100815.44
2022-08-30T11:19:24.479Z,100813.41
2022-08-30T11:20:40.106Z,100811.75
2022-08-30T11:21:46.342Z,100810.94
2022-08-30T11:23:27.743Z,100811.75
2022-08-30T11:25:31.099Z,100805.97
2022-08-30T11:26:54.843Z,100803.09
2022-08-30T11:27:58.529Z,100796.53
2022-08-30T11:29:02.680Z,100813.88
2022-08-30T11:30:27.363Z,100807.25
2022-08-30T11:31:37.540Z,100802.25
2022-08-30T11:33:18.622Z,100801.75
2022-08-30T11:34:48.473Z,100803.19
2022-08-30T11:35:53.831Z,100803.88
2022-08-30T11:36:58.271Z,100801.31
2022-08-30T11:38:17.077Z,100801.63
2022-08-30T11:39:51.412Z,100796.59
2022-08-30T11:41:12.792Z,100796.44
2022-08-30T11:42:24.195Z,100798.75
2022-08-30T11:43:43.586Z,100796.19
2022-08-30T11:44:45.789Z,100802.16
2022-08-30T11:45:52.458Z,100792.28
2022-08-30T11:46:58.712Z,100790.44
2022-08-30T11:48:07.491Z,100791.56
2022-08-30T11:49:13.322Z,100789.81
2022-08-30T11:50:23.420Z,100785.22
2022-08-30T11:51:44.423Z,100789.19
2022-08-30T11:53:04.077Z,100789.09
2022-08-30T11:54:23.180Z,100789.00
2022-08-30T11:55:42.634Z,100786.09
2022-08-30T11:57:01.339Z,100790.81
2022-08-30T11:58:44.074Z,100785.44
2022-08-30T11:59:59.172Z,100782.97
2022-08-30T12:01:50.350Z,100782.06
2022-08-30T12:03:14.488Z,100782.78
2022-08-30T12:04:19.884Z,100783.50
2022-08-30T12:05:45.726Z,100782.19
2022-08-30T12:07:04.346Z,100780.56
2022-08-30T12:08:11.527Z,100782.13
2022-08-30T12:09:25.730Z,100780.84
2022-08-30T12:10:39.054Z,100780.00
2022-08-30T12:12:08.704Z,100776.63
2022-08-30T12:13:42.744Z,100779.34
2022-08-30T12:14:49.605Z,100786.22
2022-08-30T12:16:00.685Z,100779.25
2022-08-30T12:17:29.157Z,100778.34
2022-08-30T12:18:45.532Z,100776.69
2022-08-30T12:19:50.557Z,100770.84
2022-08-30T12:21:01.513Z,100778.44
2022-08-30T12:22:08.573Z,100780.34
2022-08-30T12:23:44.350Z,100778.47
2022-08-30T12:24:51.891Z,100781.94
2022-08-30T12:26:32.483Z,100776.75
2022-08-30T12:27:35.559Z,100785.16
2022-08-30T12:28:38.172Z,100784.22
2022-08-30T12:29:52.728Z,100781.19
2022-08-30T12:30:55.442Z,100781.44
2022-08-30T12:31:59.360Z,100778.41
2022-08-30T12:33:02.091Z,100776.66
2022-08-30T12:34:08.287Z,100780.53
2022-08-30T12:35:20.883Z,100783.63
2022-08-30T12:36:52.821Z,100768.06
2022-08-30T12:38:03.299Z,100775.16
2022-08-30T12:39:14.316Z,100777.00
2022-08-30T12:40:20.249Z,100776.44
2022-08-30T12:41:23.912Z,100774.69
2022-08-30T12:42:31.897Z,100776.94
2022-08-30T12:43:40.407Z,100771.50
2022-08-30T12:44:45.208Z,100768.94
2022-08-30T12:45:50.754Z,100761.03
2022-08-30T12:47:03.051Z,100771.41
2022-08-30T12:48:11.233Z,100770.00
2022-08-30T12:49:16.185Z,100758.91
2022-08-30T12:50:25.608Z,100758.81
2022-08-30T12:51:42.579Z,100765.50
2022-08-30T12:52:49.934Z,100758.41
2022-08-30T12:53:53.433Z,100767.63